sensor_id;sensor_type;location;lat;lon;timestamp;P1;durP1;ratioP1;P2;durP2;ratioP2
76127;SDS011;64873;50.102;14.434;2022-11-20T00:00:49;49.55;;;17.63;;
76127;SDS011;64873;50.102;14.434;2022-11-20T00:03:15;43.03;;;18.58;;
76127;SDS011;64873;50.102;14.434;2022-11-20T00:05:40;81.25;;;31.90;;
76127;SDS011;64873;50.102;14.434;2022-11-20T00:08:05;86.22;;;30.23;;
76127;SDS011;64873;50.102;14.434;2022-11-20T00:10:31;31.45;;;13.82;;
76127;SDS011;64873;50.102;14.434;2022-11-20T00:12:59;34.80;;;12.98;;
76127;SDS011;64873;50.102;14.434;2022-11-20T00:15:25;59.22;;;24.17;;
76127;SDS011;64873;50.102;14.434;2022-11-20T00:17:50;40.25;;;18.23;;
76127;SDS011;64873;50.102;14.434;2022-11-20T00:20:16;73.68;;;29.85;;
76127;SDS011;64873;50.102;14.434;2022-11-20T00:22:41;57.85;;;25.50;;
76127;SDS011;64873;50.102;14.434;2022-11-20T00:25:06;35.08;;;15.85;;
76127;SDS011;64873;50.102;14.434;2022-11-20T00:27:32;64.82;;;29.05;;
76127;SDS011;64873;50.102;14.434;2022-11-20T00:29:58;74.68;;;29.92;;
76127;SDS011;64873;50.102;14.434;2022-11-20T00:32:23;32.80;;;15.23;;
76127;SDS011;64873;50.102;14.434;2022-11-20T00:34:48;68.65;;;28.90;;
76127;SDS011;64873;50.102;14.434;2022-11-20T00:37:14;62.65;;;24.42;;
76127;SDS011;64873;50.102;14.434;2022-11-20T00:39:39;36.15;;;14.95;;
76127;SDS011;64873;50.102;14.434;2022-11-20T00:42:04;84.07;;;34.08;;
76127;SDS011;64873;50.102;14.434;2022-11-20T00:44:30;58.65;;;22.58;;
76127;SDS011;64873;50.102;14.434;2022-11-20T00:46:55;28.67;;;13.27;;
76127;SDS011;64873;50.102;14.434;2022-11-20T00:49:21;45.53;;;17.05;;
76127;SDS011;64873;50.102;14.434;2022-11-20T00:51:46;62.50;;;22.27;;
76127;SDS011;64873;50.102;14.434;2022-11-20T00:54:11;57.63;;;22.23;;
76127;SDS011;64873;50.102;14.434;2022-11-20T00:56:36;69.82;;;28.58;;
76127;SDS011;64873;50.102;14.434;2022-11-20T00:59:02;86.18;;;36.22;;
76127;SDS011;64873;50.102;14.434;2022-11-20T01:01:27;54.75;;;23.02;;
76127;SDS011;64873;50.102;14.434;2022-11-20T01:03:57;83.70;;;34.83;;
76127;SDS011;64873;50.102;14.434;2022-11-20T01:06:25;61.28;;;23.05;;
76127;SDS011;64873;50.102;14.434;2022-11-20T01:08:53;57.40;;;23.58;;
76127;SDS011;64873;50.102;14.434;2022-11-20T01:11:21;30.40;;;13.82;;
76127;SDS011;64873;50.102;14.434;2022-11-20T01:13:49;44.42;;;18.10;;
76127;SDS011;64873;50.102;14.434;2022-11-20T01:18:44;66.22;;;25.15;;
76127;SDS011;64873;50.102;14.434;2022-11-20T01:21:13;37.13;;;18.80;;
76127;SDS011;64873;50.102;14.434;2022-11-20T01:23:42;45.70;;;21.42;;
76127;SDS011;64873;50.102;14.434;2022-11-20T01:26:12;45.45;;;18.52;;
76127;SDS011;64873;50.102;14.434;2022-11-20T01:28:40;36.17;;;17.20;;
76127;SDS011;64873;50.102;14.434;2022-11-20T01:33:48;44.27;;;18.23;;
76127;SDS011;64873;50.102;14.434;2022-11-20T01:36:16;54.88;;;22.80;;
76127;SDS011;64873;50.102;14.434;2022-11-20T01:38:43;51.55;;;22.17;;
76127;SDS011;64873;50.102;14.434;2022-11-20T01:41:09;53.17;;;25.33;;
76127;SDS011;64873;50.102;14.434;2022-11-20T01:43:36;65.20;;;26.42;;
76127;SDS011;64873;50.102;14.434;2022-11-20T01:48:31;56.90;;;25.30;;
76127;SDS011;64873;50.102;14.434;2022-11-20T01:51:00;53.45;;;23.05;;
76127;SDS011;64873;50.102;14.434;2022-11-20T01:53:29;56.90;;;25.13;;
76127;SDS011;64873;50.102;14.434;2022-11-20T01:55:59;67.85;;;30.13;;
76127;SDS011;64873;50.102;14.434;2022-11-20T01:58:30;62.95;;;28.48;;
76127;SDS011;64873;50.102;14.434;2022-11-20T02:01:01;51.75;;;23.55;;
76127;SDS011;64873;50.102;14.434;2022-11-20T02:03:27;54.97;;;20.67;;
76127;SDS011;64873;50.102;14.434;2022-11-20T02:05:59;62.42;;;27.75;;
76127;SDS011;64873;50.102;14.434;2022-11-20T02:08:42;79.35;;;33.60;;
76127;SDS011;64873;50.102;14.434;2022-11-20T02:11:08;61.85;;;25.65;;
76127;SDS011;64873;50.102;14.434;2022-11-20T02:13:33;63.17;;;28.00;;
76127;SDS011;64873;50.102;14.434;2022-11-20T02:16:12;74.00;;;29.90;;
76127;SDS011;64873;50.102;14.434;2022-11-20T02:18:38;46.78;;;18.83;;
76127;SDS011;64873;50.102;14.434;2022-11-20T02:24:22;63.95;;;26.70;;
76127;SDS011;64873;50.102;14.434;2022-11-20T02:29:19;59.28;;;25.08;;
76127;SDS011;64873;50.102;14.434;2022-11-20T02:31:52;43.65;;;18.08;;
76127;SDS011;64873;50.102;14.434;2022-11-20T02:34:20;60.55;;;24.98;;
76127;SDS011;64873;50.102;14.434;2022-11-20T02:36:45;55.25;;;22.65;;
76127;SDS011;64873;50.102;14.434;2022-11-20T02:39:11;54.40;;;24.20;;
76127;SDS011;64873;50.102;14.434;2022-11-20T02:41:38;30.05;;;13.35;;
76127;SDS011;64873;50.102;14.434;2022-11-20T02:44:04;34.78;;;12.68;;
76127;SDS011;64873;50.102;14.434;2022-11-20T02:46:30;31.55;;;13.35;;
76127;SDS011;64873;50.102;14.434;2022-11-20T02:48:56;44.72;;;18.45;;
76127;SDS011;64873;50.102;14.434;2022-11-20T02:51:21;40.50;;;17.85;;
76127;SDS011;64873;50.102;14.434;2022-11-20T02:53:47;45.47;;;21.00;;
76127;SDS011;64873;50.102;14.434;2022-11-20T02:56:12;38.40;;;16.42;;
76127;SDS011;64873;50.102;14.434;2022-11-20T02:58:38;63.95;;;28.17;;
76127;SDS011;64873;50.102;14.434;2022-11-20T03:01:03;69.10;;;30.15;;
76127;SDS011;64873;50.102;14.434;2022-11-20T03:03:29;69.95;;;31.15;;
76127;SDS011;64873;50.102;14.434;2022-11-20T03:05:54;74.03;;;29.60;;
76127;SDS011;64873;50.102;14.434;2022-11-20T03:08:19;57.95;;;24.83;;
76127;SDS011;64873;50.102;14.434;2022-11-20T03:10:45;56.53;;;24.02;;
76127;SDS011;64873;50.102;14.434;2022-11-20T03:13:10;59.75;;;24.65;;
76127;SDS011;64873;50.102;14.434;2022-11-20T03:15:36;62.63;;;25.58;;
76127;SDS011;64873;50.102;14.434;2022-11-20T03:18:02;71.30;;;29.17;;
76127;SDS011;64873;50.102;14.434;2022-11-20T03:20:28;53.28;;;22.60;;
76127;SDS011;64873;50.102;14.434;2022-11-20T03:22:54;65.40;;;27.40;;
76127;SDS011;64873;50.102;14.434;2022-11-20T03:25:20;63.05;;;29.35;;
76127;SDS011;64873;50.102;14.434;2022-11-20T03:27:46;62.30;;;26.55;;
76127;SDS011;64873;50.102;14.434;2022-11-20T03:30:11;71.75;;;32.97;;
76127;SDS011;64873;50.102;14.434;2022-11-20T03:32:37;65.85;;;29.25;;
76127;SDS011;64873;50.102;14.434;2022-11-20T03:35:03;67.35;;;30.05;;
76127;SDS011;64873;50.102;14.434;2022-11-20T03:37:28;59.83;;;26.50;;
76127;SDS011;64873;50.102;14.434;2022-11-20T03:39:53;66.30;;;30.75;;
76127;SDS011;64873;50.102;14.434;2022-11-20T03:42:19;57.97;;;24.80;;
76127;SDS011;64873;50.102;14.434;2022-11-20T03:45:03;61.88;;;27.27;;
76127;SDS011;64873;50.102;14.434;2022-11-20T03:47:29;70.63;;;30.45;;
76127;SDS011;64873;50.102;14.434;2022-11-20T03:49:54;65.15;;;30.08;;
76127;SDS011;64873;50.102;14.434;2022-11-20T03:52:20;70.82;;;31.35;;
76127;SDS011;64873;50.102;14.434;2022-11-20T03:54:45;74.68;;;32.58;;
76127;SDS011;64873;50.102;14.434;2022-11-20T03:57:10;68.18;;;28.48;;
76127;SDS011;64873;50.102;14.434;2022-11-20T03:59:35;72.68;;;33.33;;
76127;SDS011;64873;50.102;14.434;2022-11-20T04:02:01;66.43;;;30.17;;
76127;SDS011;64873;50.102;14.434;2022-11-20T04:04:26;72.18;;;32.85;;
76127;SDS011;64873;50.102;14.434;2022-11-20T04:06:51;66.50;;;30.90;;
76127;SDS011;64873;50.102;14.434;2022-11-20T04:09:17;64.63;;;30.63;;
76127;SDS011;64873;50.102;14.434;2022-11-20T04:11:42;68.05;;;31.58;;
76127;SDS011;64873;50.102;14.434;2022-11-20T04:14:12;63.28;;;29.88;;
76127;SDS011;64873;50.102;14.434;2022-11-20T04:16:39;68.85;;;32.13;;
76127;SDS011;64873;50.102;14.434;2022-11-20T04:19:05;70.97;;;33.58;;
76127;SDS011;64873;50.102;14.434;2022-11-20T04:21:34;71.47;;;33.10;;
76127;SDS011;64873;50.102;14.434;2022-11-20T04:23:59;70.63;;;32.75;;
76127;SDS011;64873;50.102;14.434;2022-11-20T04:26:26;67.75;;;31.77;;
76127;SDS011;64873;50.102;14.434;2022-11-20T04:28:52;69.15;;;30.85;;
76127;SDS011;64873;50.102;14.434;2022-11-20T04:31:19;64.72;;;31.60;;
76127;SDS011;64873;50.102;14.434;2022-11-20T04:33:47;66.18;;;31.30;;
76127;SDS011;64873;50.102;14.434;2022-11-20T04:36:17;72.57;;;32.40;;
76127;SDS011;64873;50.102;14.434;2022-11-20T04:38:44;62.10;;;29.17;;
76127;SDS011;64873;50.102;14.434;2022-11-20T04:41:14;60.95;;;26.92;;
76127;SDS011;64873;50.102;14.434;2022-11-20T04:43:45;69.93;;;31.35;;
76127;SDS011;64873;50.102;14.434;2022-11-20T04:46:13;63.80;;;27.65;;
76127;SDS011;64873;50.102;14.434;2022-11-20T04:48:38;61.65;;;24.25;;
76127;SDS011;64873;50.102;14.434;2022-11-20T04:51:03;59.63;;;25.13;;
76127;SDS011;64873;50.102;14.434;2022-11-20T04:53:29;67.78;;;28.63;;
76127;SDS011;64873;50.102;14.434;2022-11-20T04:55:59;69.03;;;30.75;;
76127;SDS011;64873;50.102;14.434;2022-11-20T04:58:25;64.95;;;26.25;;
76127;SDS011;64873;50.102;14.434;2022-11-20T05:00:50;68.00;;;30.67;;
76127;SDS011;64873;50.102;14.434;2022-11-20T05:03:16;65.78;;;30.63;;
76127;SDS011;64873;50.102;14.434;2022-11-20T05:05:42;72.80;;;32.00;;
76127;SDS011;64873;50.102;14.434;2022-11-20T05:08:07;64.18;;;30.00;;
76127;SDS011;64873;50.102;14.434;2022-11-20T05:10:32;74.32;;;34.58;;
76127;SDS011;64873;50.102;14.434;2022-11-20T05:12:58;79.18;;;35.42;;
76127;SDS011;64873;50.102;14.434;2022-11-20T05:15:23;69.47;;;30.60;;
76127;SDS011;64873;50.102;14.434;2022-11-20T05:17:49;79.22;;;36.88;;
76127;SDS011;64873;50.102;14.434;2022-11-20T05:20:15;80.95;;;34.20;;
76127;SDS011;64873;50.102;14.434;2022-11-20T05:22:41;76.78;;;35.03;;
76127;SDS011;64873;50.102;14.434;2022-11-20T05:25:07;74.65;;;36.25;;
76127;SDS011;64873;50.102;14.434;2022-11-20T05:27:33;80.90;;;35.47;;
76127;SDS011;64873;50.102;14.434;2022-11-20T05:29:58;80.10;;;34.90;;
76127;SDS011;64873;50.102;14.434;2022-11-20T05:32:23;74.75;;;32.22;;
76127;SDS011;64873;50.102;14.434;2022-11-20T05:34:50;84.70;;;37.80;;
76127;SDS011;64873;50.102;14.434;2022-11-20T05:37:18;105.00;;;45.65;;
76127;SDS011;64873;50.102;14.434;2022-11-20T05:39:44;117.25;;;53.58;;
76127;SDS011;64873;50.102;14.434;2022-11-20T05:42:09;105.60;;;48.83;;
76127;SDS011;64873;50.102;14.434;2022-11-20T05:44:53;112.03;;;53.40;;
76127;SDS011;64873;50.102;14.434;2022-11-20T05:47:18;110.72;;;52.40;;
76127;SDS011;64873;50.102;14.434;2022-11-20T05:49:44;100.38;;;48.72;;
76127;SDS011;64873;50.102;14.434;2022-11-20T05:52:09;99.00;;;46.70;;
76127;SDS011;64873;50.102;14.434;2022-11-20T05:54:35;90.22;;;41.38;;
76127;SDS011;64873;50.102;14.434;2022-11-20T05:57:00;92.50;;;41.45;;
76127;SDS011;64873;50.102;14.434;2022-11-20T05:59:26;89.55;;;42.15;;
76127;SDS011;64873;50.102;14.434;2022-11-20T06:01:51;92.72;;;40.08;;
76127;SDS011;64873;50.102;14.434;2022-11-20T06:04:16;88.63;;;40.90;;
76127;SDS011;64873;50.102;14.434;2022-11-20T06:06:42;94.85;;;43.88;;
76127;SDS011;64873;50.102;14.434;2022-11-20T06:09:07;90.47;;;40.03;;
76127;SDS011;64873;50.102;14.434;2022-11-20T06:11:32;82.13;;;34.72;;
76127;SDS011;64873;50.102;14.434;2022-11-20T06:13:58;91.53;;;39.47;;
76127;SDS011;64873;50.102;14.434;2022-11-20T06:16:23;86.10;;;39.10;;
76127;SDS011;64873;50.102;14.434;2022-11-20T06:18:48;84.32;;;36.38;;
76127;SDS011;64873;50.102;14.434;2022-11-20T06:21:15;85.57;;;37.92;;
76127;SDS011;64873;50.102;14.434;2022-11-20T06:23:43;81.00;;;39.25;;
76127;SDS011;64873;50.102;14.434;2022-11-20T06:26:11;90.43;;;39.40;;
76127;SDS011;64873;50.102;14.434;2022-11-20T06:28:38;96.28;;;38.63;;
76127;SDS011;64873;50.102;14.434;2022-11-20T06:31:04;70.40;;;31.95;;
76127;SDS011;64873;50.102;14.434;2022-11-20T06:33:30;81.13;;;35.00;;
76127;SDS011;64873;50.102;14.434;2022-11-20T06:35:56;82.28;;;37.70;;
76127;SDS011;64873;50.102;14.434;2022-11-20T06:38:22;77.75;;;36.97;;
76127;SDS011;64873;50.102;14.434;2022-11-20T06:40:48;84.68;;;38.05;;
76127;SDS011;64873;50.102;14.434;2022-11-20T06:43:13;78.32;;;34.80;;
76127;SDS011;64873;50.102;14.434;2022-11-20T06:45:38;75.97;;;33.88;;
76127;SDS011;64873;50.102;14.434;2022-11-20T06:48:04;77.78;;;35.17;;
76127;SDS011;64873;50.102;14.434;2022-11-20T06:50:29;78.65;;;34.92;;
76127;SDS011;64873;50.102;14.434;2022-11-20T06:52:55;73.22;;;33.72;;
76127;SDS011;64873;50.102;14.434;2022-11-20T06:55:20;87.13;;;38.90;;
76127;SDS011;64873;50.102;14.434;2022-11-20T06:57:46;84.88;;;36.92;;
76127;SDS011;64873;50.102;14.434;2022-11-20T07:00:11;84.13;;;39.38;;
76127;SDS011;64873;50.102;14.434;2022-11-20T07:02:37;82.90;;;35.85;;
76127;SDS011;64873;50.102;14.434;2022-11-20T07:05:03;71.47;;;31.40;;
76127;SDS011;64873;50.102;14.434;2022-11-20T07:07:28;79.43;;;35.38;;
76127;SDS011;64873;50.102;14.434;2022-11-20T07:09:54;71.40;;;32.22;;
76127;SDS011;64873;50.102;14.434;2022-11-20T07:12:19;63.88;;;28.45;;
76127;SDS011;64873;50.102;14.434;2022-11-20T07:14:45;64.25;;;28.75;;
76127;SDS011;64873;50.102;14.434;2022-11-20T07:17:11;72.68;;;32.20;;
76127;SDS011;64873;50.102;14.434;2022-11-20T07:19:36;68.50;;;31.45;;
76127;SDS011;64873;50.102;14.434;2022-11-20T07:22:02;74.18;;;33.65;;
76127;SDS011;64873;50.102;14.434;2022-11-20T07:24:27;77.72;;;32.53;;
76127;SDS011;64873;50.102;14.434;2022-11-20T07:26:52;70.13;;;31.45;;
76127;SDS011;64873;50.102;14.434;2022-11-20T07:29:18;72.78;;;32.17;;
76127;SDS011;64873;50.102;14.434;2022-11-20T07:31:43;70.38;;;31.73;;
76127;SDS011;64873;50.102;14.434;2022-11-20T07:34:08;65.68;;;32.72;;
76127;SDS011;64873;50.102;14.434;2022-11-20T07:36:34;68.50;;;31.45;;
76127;SDS011;64873;50.102;14.434;2022-11-20T07:38:59;70.18;;;30.95;;
76127;SDS011;64873;50.102;14.434;2022-11-20T07:41:25;79.85;;;33.13;;
76127;SDS011;64873;50.102;14.434;2022-11-20T07:43:50;65.60;;;29.27;;
76127;SDS011;64873;50.102;14.434;2022-11-20T07:46:15;72.10;;;31.50;;
76127;SDS011;64873;50.102;14.434;2022-11-20T07:48:41;50.40;;;22.08;;
76127;SDS011;64873;50.102;14.434;2022-11-20T07:51:06;65.55;;;29.90;;
76127;SDS011;64873;50.102;14.434;2022-11-20T07:53:31;63.40;;;30.00;;
76127;SDS011;64873;50.102;14.434;2022-11-20T07:56:00;43.15;;;21.23;;
76127;SDS011;64873;50.102;14.434;2022-11-20T07:58:26;62.75;;;25.88;;
76127;SDS011;64873;50.102;14.434;2022-11-20T08:00:54;59.30;;;27.67;;
76127;SDS011;64873;50.102;14.434;2022-11-20T08:03:19;72.53;;;33.92;;
76127;SDS011;64873;50.102;14.434;2022-11-20T08:05:44;72.70;;;33.08;;
76127;SDS011;64873;50.102;14.434;2022-11-20T08:08:10;77.38;;;34.17;;
76127;SDS011;64873;50.102;14.434;2022-11-20T08:10:35;81.18;;;37.60;;
76127;SDS011;64873;50.102;14.434;2022-11-20T08:13:00;74.15;;;33.33;;
76127;SDS011;64873;50.102;14.434;2022-11-20T08:15:47;66.85;;;29.40;;
76127;SDS011;64873;50.102;14.434;2022-11-20T08:18:15;71.60;;;31.85;;
76127;SDS011;64873;50.102;14.434;2022-11-20T08:20:40;73.65;;;34.55;;
76127;SDS011;64873;50.102;14.434;2022-11-20T08:23:07;76.05;;;34.58;;
76127;SDS011;64873;50.102;14.434;2022-11-20T08:25:36;77.47;;;38.13;;
76127;SDS011;64873;50.102;14.434;2022-11-20T08:28:03;78.18;;;34.97;;
76127;SDS011;64873;50.102;14.434;2022-11-20T08:30:31;66.85;;;30.75;;
76127;SDS011;64873;50.102;14.434;2022-11-20T08:33:00;75.28;;;32.08;;
76127;SDS011;64873;50.102;14.434;2022-11-20T08:35:28;74.28;;;33.13;;
76127;SDS011;64873;50.102;14.434;2022-11-20T08:37:53;78.07;;;33.08;;
76127;SDS011;64873;50.102;14.434;2022-11-20T08:40:19;64.25;;;30.90;;
76127;SDS011;64873;50.102;14.434;2022-11-20T08:42:47;66.63;;;30.98;;
76127;SDS011;64873;50.102;14.434;2022-11-20T08:45:14;66.97;;;32.60;;
76127;SDS011;64873;50.102;14.434;2022-11-20T08:47:39;65.72;;;30.35;;
76127;SDS011;64873;50.102;14.434;2022-11-20T08:50:06;62.33;;;28.92;;
76127;SDS011;64873;50.102;14.434;2022-11-20T08:52:31;68.80;;;31.83;;
76127;SDS011;64873;50.102;14.434;2022-11-20T08:54:57;65.13;;;30.08;;
76127;SDS011;64873;50.102;14.434;2022-11-20T08:57:22;72.40;;;34.10;;
76127;SDS011;64873;50.102;14.434;2022-11-20T08:59:48;64.00;;;28.48;;
76127;SDS011;64873;50.102;14.434;2022-11-20T09:02:13;66.22;;;31.40;;
76127;SDS011;64873;50.102;14.434;2022-11-20T09:04:39;64.25;;;31.17;;
76127;SDS011;64873;50.102;14.434;2022-11-20T09:07:04;68.95;;;34.15;;
76127;SDS011;64873;50.102;14.434;2022-11-20T09:09:29;65.38;;;31.75;;
76127;SDS011;64873;50.102;14.434;2022-11-20T09:11:55;73.05;;;35.17;;
76127;SDS011;64873;50.102;14.434;2022-11-20T09:14:20;65.32;;;31.33;;
76127;SDS011;64873;50.102;14.434;2022-11-20T09:16:46;68.85;;;32.67;;
76127;SDS011;64873;50.102;14.434;2022-11-20T09:19:11;63.58;;;32.38;;
76127;SDS011;64873;50.102;14.434;2022-11-20T09:21:37;64.97;;;31.90;;
76127;SDS011;64873;50.102;14.434;2022-11-20T09:24:02;66.25;;;31.33;;
76127;SDS011;64873;50.102;14.434;2022-11-20T09:26:29;67.18;;;31.80;;
76127;SDS011;64873;50.102;14.434;2022-11-20T09:28:54;68.93;;;34.47;;
76127;SDS011;64873;50.102;14.434;2022-11-20T09:31:24;70.75;;;34.92;;
76127;SDS011;64873;50.102;14.434;2022-11-20T09:33:51;64.75;;;32.78;;
76127;SDS011;64873;50.102;14.434;2022-11-20T09:36:16;68.63;;;32.22;;
76127;SDS011;64873;50.102;14.434;2022-11-20T09:38:43;68.07;;;32.10;;
76127;SDS011;64873;50.102;14.434;2022-11-20T09:41:16;69.03;;;32.78;;
76127;SDS011;64873;50.102;14.434;2022-11-20T09:44:14;72.03;;;33.67;;
76127;SDS011;64873;50.102;14.434;2022-11-20T09:47:01;68.43;;;31.27;;
76127;SDS011;64873;50.102;14.434;2022-11-20T09:52:40;67.38;;;33.42;;
76127;SDS011;64873;50.102;14.434;2022-11-20T09:55:18;72.32;;;34.63;;
76127;SDS011;64873;50.102;14.434;2022-11-20T09:57:45;72.22;;;33.88;;
76127;SDS011;64873;50.102;14.434;2022-11-20T10:00:13;65.70;;;31.90;;
76127;SDS011;64873;50.102;14.434;2022-11-20T10:05:12;69.07;;;34.20;;
76127;SDS011;64873;50.102;14.434;2022-11-20T10:27:39;102.45;;;43.70;;
76127;SDS011;64873;50.102;14.434;2022-11-20T10:30:29;89.50;;;43.22;;
76127;SDS011;64873;50.102;14.434;2022-11-20T10:33:04;71.75;;;33.85;;
76127;SDS011;64873;50.102;14.434;2022-11-20T10:36:24;70.75;;;35.60;;
76127;SDS011;64873;50.102;14.434;2022-11-20T10:38:31;71.28;;;32.63;;
76127;SDS011;64873;50.102;14.434;2022-11-20T10:41:05;70.30;;;32.60;;
76127;SDS011;64873;50.102;14.434;2022-11-20T10:43:50;69.05;;;32.25;;
76127;SDS011;64873;50.102;14.434;2022-11-20T10:46:22;66.75;;;33.25;;
76127;SDS011;64873;50.102;14.434;2022-11-20T10:48:48;75.93;;;34.63;;
76127;SDS011;64873;50.102;14.434;2022-11-20T10:51:24;69.20;;;33.22;;
76127;SDS011;64873;50.102;14.434;2022-11-20T10:53:57;69.55;;;33.40;;
76127;SDS011;64873;50.102;14.434;2022-11-20T10:59:10;71.45;;;34.55;;
76127;SDS011;64873;50.102;14.434;2022-11-20T11:01:57;69.55;;;34.47;;
76127;SDS011;64873;50.102;14.434;2022-11-20T11:07:06;62.95;;;28.77;;
76127;SDS011;64873;50.102;14.434;2022-11-20T11:09:48;65.60;;;30.55;;
76127;SDS011;64873;50.102;14.434;2022-11-20T11:12:26;70.75;;;34.72;;
76127;SDS011;64873;50.102;14.434;2022-11-20T11:14:54;91.00;;;45.70;;
76127;SDS011;64873;50.102;14.434;2022-11-20T11:17:31;85.63;;;42.17;;
76127;SDS011;64873;50.102;14.434;2022-11-20T11:22:42;77.78;;;38.65;;
76127;SDS011;64873;50.102;14.434;2022-11-20T11:25:33;82.70;;;41.10;;
76127;SDS011;64873;50.102;14.434;2022-11-20T11:28:03;77.53;;;39.72;;
76127;SDS011;64873;50.102;14.434;2022-11-20T11:30:46;78.68;;;40.03;;
76127;SDS011;64873;50.102;14.434;2022-11-20T11:33:21;78.88;;;38.28;;
76127;SDS011;64873;50.102;14.434;2022-11-20T11:35:55;79.40;;;37.97;;
76127;SDS011;64873;50.102;14.434;2022-11-20T11:41:00;65.68;;;32.20;;
76127;SDS011;64873;50.102;14.434;2022-11-20T11:43:29;64.63;;;31.52;;
76127;SDS011;64873;50.102;14.434;2022-11-20T11:46:32;72.00;;;35.53;;
76127;SDS011;64873;50.102;14.434;2022-11-20T11:51:30;72.25;;;35.80;;
76127;SDS011;64873;50.102;14.434;2022-11-20T11:54:00;74.25;;;36.55;;
76127;SDS011;64873;50.102;14.434;2022-11-20T11:56:29;77.20;;;38.47;;
76127;SDS011;64873;50.102;14.434;2022-11-20T11:58:58;75.90;;;38.78;;
76127;SDS011;64873;50.102;14.434;2022-11-20T12:01:31;73.17;;;36.13;;
76127;SDS011;64873;50.102;14.434;2022-11-20T12:04:04;71.13;;;35.67;;
76127;SDS011;64873;50.102;14.434;2022-11-20T12:06:42;62.67;;;31.60;;
76127;SDS011;64873;50.102;14.434;2022-11-20T12:09:12;58.78;;;26.77;;
76127;SDS011;64873;50.102;14.434;2022-11-20T12:19:15;68.78;;;34.70;;
76127;SDS011;64873;50.102;14.434;2022-11-20T12:21:54;65.30;;;32.22;;
76127;SDS011;64873;50.102;14.434;2022-11-20T12:32:38;107.03;;;49.78;;
76127;SDS011;64873;50.102;14.434;2022-11-20T12:47:07;76.28;;;37.50;;
76127;SDS011;64873;50.102;14.434;2022-11-20T12:49:48;70.80;;;33.53;;
76127;SDS011;64873;50.102;14.434;2022-11-20T12:55:25;83.68;;;42.33;;
76127;SDS011;64873;50.102;14.434;2022-11-20T12:58:09;87.20;;;42.37;;
76127;SDS011;64873;50.102;14.434;2022-11-20T13:00:47;80.38;;;39.50;;
76127;SDS011;64873;50.102;14.434;2022-11-20T13:03:34;71.97;;;36.63;;
76127;SDS011;64873;50.102;14.434;2022-11-20T13:06:11;70.07;;;32.75;;
76127;SDS011;64873;50.102;14.434;2022-11-20T13:08:53;68.78;;;32.70;;
76127;SDS011;64873;50.102;14.434;2022-11-20T13:11:24;80.78;;;36.83;;
76127;SDS011;64873;50.102;14.434;2022-11-20T13:17:28;59.00;;;29.48;;
76127;SDS011;64873;50.102;14.434;2022-11-20T13:20:02;64.63;;;31.55;;
76127;SDS011;64873;50.102;14.434;2022-11-20T13:22:44;64.85;;;31.17;;
76127;SDS011;64873;50.102;14.434;2022-11-20T13:27:53;72.03;;;34.97;;
76127;SDS011;64873;50.102;14.434;2022-11-20T13:30:20;74.60;;;38.42;;
76127;SDS011;64873;50.102;14.434;2022-11-20T13:32:51;73.13;;;35.45;;
76127;SDS011;64873;50.102;14.434;2022-11-20T13:35:24;75.68;;;35.53;;
76127;SDS011;64873;50.102;14.434;2022-11-20T13:40:33;73.80;;;37.22;;
76127;SDS011;64873;50.102;14.434;2022-11-20T13:43:04;78.03;;;36.15;;
76127;SDS011;64873;50.102;14.434;2022-11-20T13:45:30;72.93;;;35.72;;
76127;SDS011;64873;50.102;14.434;2022-11-20T13:47:57;77.65;;;38.55;;
76127;SDS011;64873;50.102;14.434;2022-11-20T13:53:43;75.95;;;36.08;;
76127;SDS011;64873;50.102;14.434;2022-11-20T14:01:43;80.15;;;38.47;;
76127;SDS011;64873;50.102;14.434;2022-11-20T14:04:13;73.63;;;37.42;;
76127;SDS011;64873;50.102;14.434;2022-11-20T14:06:43;84.05;;;39.00;;
76127;SDS011;64873;50.102;14.434;2022-11-20T14:09:11;70.03;;;35.72;;
76127;SDS011;64873;50.102;14.434;2022-11-20T14:11:49;75.07;;;38.88;;
76127;SDS011;64873;50.102;14.434;2022-11-20T14:14:18;72.82;;;36.13;;
76127;SDS011;64873;50.102;14.434;2022-11-20T14:16:45;77.07;;;38.08;;
76127;SDS011;64873;50.102;14.434;2022-11-20T14:19:20;71.88;;;36.45;;
76127;SDS011;64873;50.102;14.434;2022-11-20T14:21:52;77.15;;;38.15;;
76127;SDS011;64873;50.102;14.434;2022-11-20T14:24:23;79.53;;;38.75;;
76127;SDS011;64873;50.102;14.434;2022-11-20T14:26:50;72.88;;;35.65;;
76127;SDS011;64873;50.102;14.434;2022-11-20T14:31:44;72.07;;;36.08;;
76127;SDS011;64873;50.102;14.434;2022-11-20T14:34:30;69.90;;;36.35;;
76127;SDS011;64873;50.102;14.434;2022-11-20T14:37:01;70.45;;;31.27;;
76127;SDS011;64873;50.102;14.434;2022-11-20T14:39:32;65.63;;;34.00;;
76127;SDS011;64873;50.102;14.434;2022-11-20T14:42:00;68.68;;;33.40;;
76127;SDS011;64873;50.102;14.434;2022-11-20T14:44:34;70.28;;;31.88;;
76127;SDS011;64873;50.102;14.434;2022-11-20T14:47:00;68.22;;;33.40;;
76127;SDS011;64873;50.102;14.434;2022-11-20T14:49:29;78.82;;;39.50;;
76127;SDS011;64873;50.102;14.434;2022-11-20T14:52:29;78.15;;;39.88;;
76127;SDS011;64873;50.102;14.434;2022-11-20T14:54:49;80.72;;;39.63;;
76127;SDS011;64873;50.102;14.434;2022-11-20T14:57:21;85.03;;;41.78;;
76127;SDS011;64873;50.102;14.434;2022-11-20T14:59:51;80.15;;;39.55;;
76127;SDS011;64873;50.102;14.434;2022-11-20T15:02:28;75.05;;;39.13;;
76127;SDS011;64873;50.102;14.434;2022-11-20T15:04:58;79.53;;;39.42;;
76127;SDS011;64873;50.102;14.434;2022-11-20T15:07:34;76.05;;;38.03;;
76127;SDS011;64873;50.102;14.434;2022-11-20T15:10:23;87.70;;;40.85;;
76127;SDS011;64873;50.102;14.434;2022-11-20T15:12:55;107.55;;;54.13;;
76127;SDS011;64873;50.102;14.434;2022-11-20T15:18:13;82.45;;;41.78;;
76127;SDS011;64873;50.102;14.434;2022-11-20T15:20:41;81.93;;;40.17;;
76127;SDS011;64873;50.102;14.434;2022-11-20T15:23:11;84.55;;;43.17;;
76127;SDS011;64873;50.102;14.434;2022-11-20T15:25:38;94.22;;;47.35;;
76127;SDS011;64873;50.102;14.434;2022-11-20T15:28:05;113.45;;;55.42;;
76127;SDS011;64873;50.102;14.434;2022-11-20T15:30:40;142.88;;;67.63;;
76127;SDS011;64873;50.102;14.434;2022-11-20T15:33:07;131.98;;;59.88;;
76127;SDS011;64873;50.102;14.434;2022-11-20T15:35:34;117.65;;;55.22;;
76127;SDS011;64873;50.102;14.434;2022-11-20T15:37:59;128.52;;;62.08;;
76127;SDS011;64873;50.102;14.434;2022-11-20T15:40:25;111.15;;;52.28;;
76127;SDS011;64873;50.102;14.434;2022-11-20T15:42:50;97.30;;;47.38;;
76127;SDS011;64873;50.102;14.434;2022-11-20T15:45:28;109.47;;;51.45;;
76127;SDS011;64873;50.102;14.434;2022-11-20T15:47:58;113.03;;;56.47;;
76127;SDS011;64873;50.102;14.434;2022-11-20T15:50:29;177.15;;;85.70;;
76127;SDS011;64873;50.102;14.434;2022-11-20T15:53:01;119.38;;;57.65;;
76127;SDS011;64873;50.102;14.434;2022-11-20T15:55:26;111.35;;;53.53;;
76127;SDS011;64873;50.102;14.434;2022-11-20T15:57:52;103.72;;;50.70;;
76127;SDS011;64873;50.102;14.434;2022-11-20T16:00:17;83.63;;;39.65;;
76127;SDS011;64873;50.102;14.434;2022-11-20T16:02:43;77.25;;;40.50;;